sensor_id;sensor_type;location;lat;lon;timestamp;temperature;humidity
19263;DHT22;9765;52.354;20.884;2022-08-21T04:24:49;19.30;99.90
19263;DHT22;9765;52.354;20.884;2022-08-21T04:27:16;19.20;99.90
19263;DHT22;9765;52.354;20.884;2022-08-21T04:29:42;19.20;99.90
19263;DHT22;9765;52.354;20.884;2022-08-21T04:32:09;19.20;99.90
19263;DHT22;9765;52.354;20.884;2022-08-21T04:34:36;19.30;99.90
19263;DHT22;9765;52.354;20.884;2022-08-21T04:37:03;19.30;99.90
19263;DHT22;9765;52.354;20.884;2022-08-21T04:39:29;19.30;99.90
19263;DHT22;9765;52.354;20.884;2022-08-21T04:41:58;19.30;99.90
19263;DHT22;9765;52.354;20.884;2022-08-21T04:44:24;19.40;99.90
19263;DHT22;9765;52.354;20.884;2022-08-21T04:46:51;19.40;99.90
19263;DHT22;9765;52.354;20.884;2022-08-21T04:49:18;19.50;99.90
19263;DHT22;9765;52.354;20.884;2022-08-21T04:51:45;19.50;99.90
19263;DHT22;9765;52.354;20.884;2022-08-21T04:54:15;19.60;99.90
19263;DHT22;9765;52.354;20.884;2022-08-21T04:56:47;19.70;99.90
19263;DHT22;9765;52.354;20.884;2022-08-21T04:59:18;19.90;99.90
19263;DHT22;9765;52.354;20.884;2022-08-21T05:01:47;19.90;99.90
19263;DHT22;9765;52.354;20.884;2022-08-21T05:04:16;20.10;99.90
19263;DHT22;9765;52.354;20.884;2022-08-21T05:06:46;20.20;99.90
19263;DHT22;9765;52.354;20.884;2022-08-21T05:09:15;20.30;99.90
19263;DHT22;9765;52.354;20.884;2022-08-21T05:11:43;20.50;99.90
19263;DHT22;9765;52.354;20.884;2022-08-21T05:14:11;20.50;99.90
19263;DHT22;9765;52.354;20.884;2022-08-21T05:16:39;20.10;99.90
19263;DHT22;9765;52.354;20.884;2022-08-21T05:19:07;20.90;99.90
19263;DHT22;9765;52.354;20.884;2022-08-21T05:21:35;21.00;99.90
19263;DHT22;9765;52.354;20.884;2022-08-21T05:24:02;21.10;99.90
19263;DHT22;9765;52.354;20.884;2022-08-21T05:26:29;21.30;99.90
19263;DHT22;9765;52.354;20.884;2022-08-21T05:28:56;21.20;99.90
19263;DHT22;9765;52.354;20.884;2022-08-21T05:31:23;21.10;99.90
19263;DHT22;9765;52.354;20.884;2022-08-21T05:33:51;21.40;99.90
19263;DHT22;9765;52.354;20.884;2022-08-21T05:36:18;21.40;99.90
19263;DHT22;9765;52.354;20.884;2022-08-21T05:38:45;21.50;99.90
19263;DHT22;9765;52.354;20.884;2022-08-21T05:41:12;21.60;99.90
19263;DHT22;9765;52.354;20.884;2022-08-21T05:43:38;21.60;99.90
19263;DHT22;9765;52.354;20.884;2022-08-21T05:46:06;21.70;99.90
19263;DHT22;9765;52.354;20.884;2022-08-21T05:48:34;21.70;99.90
19263;DHT22;9765;52.354;20.884;2022-08-21T05:51:07;21.80;99.90
19263;DHT22;9765;52.354;20.884;2022-08-21T05:53:34;21.90;99.90
19263;DHT22;9765;52.354;20.884;2022-08-21T05:56:01;21.90;99.90
19263;DHT22;9765;52.354;20.884;2022-08-21T05:58:30;22.00;99.90
19263;DHT22;9765;52.354;20.884;2022-08-21T06:00:58;22.10;99.90
19263;DHT22;9765;52.354;20.884;2022-08-21T06:03:27;22.10;99.90
19263;DHT22;9765;52.354;20.884;2022-08-21T06:05:57;22.10;99.90
19263;DHT22;9765;52.354;20.884;2022-08-21T06:08:26;22.30;99.90
19263;DHT22;9765;52.354;20.884;2022-08-21T06:10:54;22.30;99.90
19263;DHT22;9765;52.354;20.884;2022-08-21T06:13:22;22.40;99.90
19263;DHT22;9765;52.354;20.884;2022-08-21T06:15:50;22.40;99.90
19263;DHT22;9765;52.354;20.884;2022-08-21T06:18:17;22.40;99.90
19263;DHT22;9765;52.354;20.884;2022-08-21T06:20:45;22.40;99.90
19263;DHT22;9765;52.354;20.884;2022-08-21T06:23:11;22.50;99.90
19263;DHT22;9765;52.354;20.884;2022-08-21T06:25:39;22.40;99.90
19263;DHT22;9765;52.354;20.884;2022-08-21T06:28:08;22.50;99.90
19263;DHT22;9765;52.354;20.884;2022-08-21T06:30:36;22.60;99.90
19263;DHT22;9765;52.354;20.884;2022-08-21T06:33:04;22.80;99.90
19263;DHT22;9765;52.354;20.884;2022-08-21T06:35:31;22.90;99.90
19263;DHT22;9765;52.354;20.884;2022-08-21T06:37:58;22.90;99.90
19263;DHT22;9765;52.354;20.884;2022-08-21T06:40:25;23.00;99.90
19263;DHT22;9765;52.354;20.884;2022-08-21T06:42:54;23.10;99.90
19263;DHT22;9765;52.354;20.884;2022-08-21T06:45:21;23.20;99.90
19263;DHT22;9765;52.354;20.884;2022-08-21T06:47:47;23.30;99.90
19263;DHT22;9765;52.354;20.884;2022-08-21T06:50:14;23.30;99.90
19263;DHT22;9765;52.354;20.884;2022-08-21T06:52:41;23.50;99.90
19263;DHT22;9765;52.354;20.884;2022-08-21T06:55:09;23.60;99.90
19263;DHT22;9765;52.354;20.884;2022-08-21T06:57:35;23.70;99.90
19263;DHT22;9765;52.354;20.884;2022-08-21T07:00:05;23.80;99.90
19263;DHT22;9765;52.354;20.884;2022-08-21T07:02:33;23.90;99.90
19263;DHT22;9765;52.354;20.884;2022-08-21T07:04:59;24.10;99.90
19263;DHT22;9765;52.354;20.884;2022-08-21T07:07:26;24.30;99.90
19263;DHT22;9765;52.354;20.884;2022-08-21T07:09:53;24.40;99.90
19263;DHT22;9765;52.354;20.884;2022-08-21T07:12:19;25.00;99.90
19263;DHT22;9765;52.354;20.884;2022-08-21T07:14:46;24.90;99.90
19263;DHT22;9765;52.354;20.884;2022-08-21T07:17:15;25.20;99.90
19263;DHT22;9765;52.354;20.884;2022-08-21T07:19:42;25.40;99.90
19263;DHT22;9765;52.354;20.884;2022-08-21T07:22:08;25.50;99.90
19263;DHT22;9765;52.354;20.884;2022-08-21T07:24:35;25.50;99.90
19263;DHT22;9765;52.354;20.884;2022-08-21T07:27:02;25.60;99.90
19263;DHT22;9765;52.354;20.884;2022-08-21T07:29:29;25.70;99.90
19263;DHT22;9765;52.354;20.884;2022-08-21T07:31:56;25.60;99.90
19263;DHT22;9765;52.354;20.884;2022-08-21T07:34:24;25.90;99.90
19263;DHT22;9765;52.354;20.884;2022-08-21T07:36:50;26.00;99.90
19263;DHT22;9765;52.354;20.884;2022-08-21T07:39:17;26.10;99.90
19263;DHT22;9765;52.354;20.884;2022-08-21T07:41:44;26.00;99.90
19263;DHT22;9765;52.354;20.884;2022-08-21T07:44:10;26.40;99.90
19263;DHT22;9765;52.354;20.884;2022-08-21T07:46:37;26.60;99.90
19263;DHT22;9765;52.354;20.884;2022-08-21T07:49:04;26.60;99.90
19263;DHT22;9765;52.354;20.884;2022-08-21T07:51:32;26.40;99.90
19263;DHT22;9765;52.354;20.884;2022-08-21T07:54:00;26.50;99.90
19263;DHT22;9765;52.354;20.884;2022-08-21T07:56:29;26.70;99.90
19263;DHT22;9765;52.354;20.884;2022-08-21T07:58:58;26.80;99.90
19263;DHT22;9765;52.354;20.884;2022-08-21T08:01:25;26.70;99.90
19263;DHT22;9765;52.354;20.884;2022-08-21T08:03:52;26.90;99.90
19263;DHT22;9765;52.354;20.884;2022-08-21T08:06:19;27.10;99.90
19263;DHT22;9765;52.354;20.884;2022-08-21T08:08:47;26.90;99.90
19263;DHT22;9765;52.354;20.884;2022-08-21T08:11:13;26.80;99.90
19263;DHT22;9765;52.354;20.884;2022-08-21T08:13:42;26.90;99.90
19263;DHT22;9765;52.354;20.884;2022-08-21T08:16:09;26.80;99.90
19263;DHT22;9765;52.354;20.884;2022-08-21T08:18:36;26.80;99.90
19263;DHT22;9765;52.354;20.884;2022-08-21T08:21:04;26.80;99.90
19263;DHT22;9765;52.354;20.884;2022-08-21T08:23:31;26.90;99.90
19263;DHT22;9765;52.354;20.884;2022-08-21T08:26:00;27.00;99.90
19263;DHT22;9765;52.354;20.884;2022-08-21T08:28:28;26.90;99.90
19263;DHT22;9765;52.354;20.884;2022-08-21T08:30:54;27.10;99.90
19263;DHT22;9765;52.354;20.884;2022-08-21T08:33:21;27.00;99.90
19263;DHT22;9765;52.354;20.884;2022-08-21T08:35:49;27.00;99.90
19263;DHT22;9765;52.354;20.884;2022-08-21T08:38:17;27.00;99.90
19263;DHT22;9765;52.354;20.884;2022-08-21T08:40:47;27.00;99.90
19263;DHT22;9765;52.354;20.884;2022-08-21T08:43:19;27.20;99.90
19263;DHT22;9765;52.354;20.884;2022-08-21T08:45:48;27.20;99.90
19263;DHT22;9765;52.354;20.884;2022-08-21T08:48:31;27.30;99.90
19263;DHT22;9765;52.354;20.884;2022-08-21T08:51:02;27.60;99.90
19263;DHT22;9765;52.354;20.884;2022-08-21T08:53:35;27.60;99.90
19263;DHT22;9765;52.354;20.884;2022-08-21T08:56:05;27.90;99.90
19263;DHT22;9765;52.354;20.884;2022-08-21T08:58:39;28.00;99.90
19263;DHT22;9765;52.354;20.884;2022-08-21T09:01:11;27.80;99.90
19263;DHT22;9765;52.354;20.884;2022-08-21T09:03:40;27.20;99.90
19263;DHT22;9765;52.354;20.884;2022-08-21T09:06:15;28.00;99.90
19263;DHT22;9765;52.354;20.884;2022-08-21T09:08:50;28.30;99.90
19263;DHT22;9765;52.354;20.884;2022-08-21T09:11:28;28.10;99.90
19263;DHT22;9765;52.354;20.884;2022-08-21T09:14:04;27.80;99.90
19263;DHT22;9765;52.354;20.884;2022-08-21T09:16:42;27.80;99.90
19263;DHT22;9765;52.354;20.884;2022-08-21T09:19:19;27.90;99.90
19263;DHT22;9765;52.354;20.884;2022-08-21T09:21:57;28.00;99.90
19263;DHT22;9765;52.354;20.884;2022-08-21T09:24:32;28.20;99.90
19263;DHT22;9765;52.354;20.884;2022-08-21T09:27:05;28.30;99.90
19263;DHT22;9765;52.354;20.884;2022-08-21T09:29:36;28.20;99.90
19263;DHT22;9765;52.354;20.884;2022-08-21T09:32:11;28.30;99.90
19263;DHT22;9765;52.354;20.884;2022-08-21T09:34:41;28.40;99.90
19263;DHT22;9765;52.354;20.884;2022-08-21T09:37:16;28.60;99.90
19263;DHT22;9765;52.354;20.884;2022-08-21T09:39:43;28.40;99.90
19263;DHT22;9765;52.354;20.884;2022-08-21T09:42:10;28.00;99.90
19263;DHT22;9765;52.354;20.884;2022-08-21T09:44:40;27.70;99.90
19263;DHT22;9765;52.354;20.884;2022-08-21T09:47:10;27.60;99.90
19263;DHT22;9765;52.354;20.884;2022-08-21T09:49:40;27.50;99.90
19263;DHT22;9765;52.354;20.884;2022-08-21T09:52:16;27.50;99.90
19263;DHT22;9765;52.354;20.884;2022-08-21T09:54:45;27.30;99.90
19263;DHT22;9765;52.354;20.884;2022-08-21T09:57:14;27.20;99.90
19263;DHT22;9765;52.354;20.884;2022-08-21T10:00:10;27.20;99.90
19263;DHT22;9765;52.354;20.884;2022-08-21T10:02:41;27.50;99.90
19263;DHT22;9765;52.354;20.884;2022-08-21T10:05:16;27.80;99.90
19263;DHT22;9765;52.354;20.884;2022-08-21T10:07:43;28.30;99.90
19263;DHT22;9765;52.354;20.884;2022-08-21T10:10:15;28.60;99.90
19263;DHT22;9765;52.354;20.884;2022-08-21T10:12:48;28.70;99.90
19263;DHT22;9765;52.354;20.884;2022-08-21T10:15:22;28.70;99.90
19263;DHT22;9765;52.354;20.884;2022-08-21T10:17:57;28.80;99.90
19263;DHT22;9765;52.354;20.884;2022-08-21T10:20:29;28.90;99.90
19263;DHT22;9765;52.354;20.884;2022-08-21T10:23:07;29.00;99.90
19263;DHT22;9765;52.354;20.884;2022-08-21T10:25:44;29.00;99.90
19263;DHT22;9765;52.354;20.884;2022-08-21T10:28:16;29.10;99.90
19263;DHT22;9765;52.354;20.884;2022-08-21T10:30:52;29.50;99.90
19263;DHT22;9765;52.354;20.884;2022-08-21T10:33:31;29.60;99.90
19263;DHT22;9765;52.354;20.884;2022-08-21T10:36:12;29.30;99.90
19263;DHT22;9765;52.354;20.884;2022-08-21T10:38:54;29.40;99.90
19263;DHT22;9765;52.354;20.884;2022-08-21T10:41:31;29.60;99.90
19263;DHT22;9765;52.354;20.884;2022-08-21T10:44:08;29.60;99.90
19263;DHT22;9765;52.354;20.884;2022-08-21T10:46:46;29.70;99.90
19263;DHT22;9765;52.354;20.884;2022-08-21T10:49:22;29.90;99.90
19263;DHT22;9765;52.354;20.884;2022-08-21T10:51:59;29.70;99.90
19263;DHT22;9765;52.354;20.884;2022-08-21T10:54:33;29.50;99.90
19263;DHT22;9765;52.354;20.884;2022-08-21T10:57:04;29.70;99.90
19263;DHT22;9765;52.354;20.884;2022-08-21T10:59:38;29.50;99.90
19263;DHT22;9765;52.354;20.884;2022-08-21T11:02:15;29.40;99.90
19263;DHT22;9765;52.354;20.884;2022-08-21T11:04:50;29.30;99.90
19263;DHT22;9765;52.354;20.884;2022-08-21T11:07:21;29.30;99.90
19263;DHT22;9765;52.354;20.884;2022-08-21T11:09:49;29.00;99.90
19263;DHT22;9765;52.354;20.884;2022-08-21T11:12:20;29.00;99.90
19263;DHT22;9765;52.354;20.884;2022-08-21T11:14:55;29.00;99.90
19263;DHT22;9765;52.354;20.884;2022-08-21T11:17:30;29.10;99.90
19263;DHT22;9765;52.354;20.884;2022-08-21T11:20:03;29.20;99.90
19263;DHT22;9765;52.354;20.884;2022-08-21T11:22:37;29.00;99.90
19263;DHT22;9765;52.354;20.884;2022-08-21T11:25:09;29.10;99.90
19263;DHT22;9765;52.354;20.884;2022-08-21T11:27:42;29.00;99.90
19263;DHT22;9765;52.354;20.884;2022-08-21T11:30:10;28.90;99.90
19263;DHT22;9765;52.354;20.884;2022-08-21T11:32:57;28.90;99.90
19263;DHT22;9765;52.354;20.884;2022-08-21T11:35:32;29.00;99.90
19263;DHT22;9765;52.354;20.884;2022-08-21T11:38:19;29.20;99.90
19263;DHT22;9765;52.354;20.884;2022-08-21T11:41:00;29.30;99.90
19263;DHT22;9765;52.354;20.884;2022-08-21T11:43:35;29.30;99.90
19263;DHT22;9765;52.354;20.884;2022-08-21T11:46:17;29.40;99.90
19263;DHT22;9765;52.354;20.884;2022-08-21T11:48:56;29.30;99.90
19263;DHT22;9765;52.354;20.884;2022-08-21T11:51:32;29.50;99.90
19263;DHT22;9765;52.354;20.884;2022-08-21T11:54:04;29.70;99.90
19263;DHT22;9765;52.354;20.884;2022-08-21T11:56:35;29.50;99.90
19263;DHT22;9765;52.354;20.884;2022-08-21T11:59:09;29.30;99.90
19263;DHT22;9765;52.354;20.884;2022-08-21T12:01:41;29.20;99.90
19263;DHT22;9765;52.354;20.884;2022-08-21T12:04:18;29.00;99.90
19263;DHT22;9765;52.354;20.884;2022-08-21T12:06:47;29.20;99.90
19263;DHT22;9765;52.354;20.884;2022-08-21T12:09:31;29.20;99.90
19263;DHT22;9765;52.354;20.884;2022-08-21T12:12:02;29.30;99.90
19263;DHT22;9765;52.354;20.884;2022-08-21T12:14:37;29.30;99.90
19263;DHT22;9765;52.354;20.884;2022-08-21T12:17:07;29.40;99.90
19263;DHT22;9765;52.354;20.884;2022-08-21T12:19:36;29.40;99.90
19263;DHT22;9765;52.354;20.884;2022-08-21T12:22:11;29.40;99.90
19263;DHT22;9765;52.354;20.884;2022-08-21T12:24:40;29.10;99.90
19263;DHT22;9765;52.354;20.884;2022-08-21T12:27:20;28.80;99.90
19263;DHT22;9765;52.354;20.884;2022-08-21T12:29:52;28.70;99.90
19263;DHT22;9765;52.354;20.884;2022-08-21T12:32:24;28.60;99.90
19263;DHT22;9765;52.354;20.884;2022-08-21T12:34:56;28.70;99.90
19263;DHT22;9765;52.354;20.884;2022-08-21T12:37:29;28.80;99.90
19263;DHT22;9765;52.354;20.884;2022-08-21T12:40:02;28.90;99.90
19263;DHT22;9765;52.354;20.884;2022-08-21T12:42:34;28.90;99.90
19263;DHT22;9765;52.354;20.884;2022-08-21T12:45:10;28.90;99.90
19263;DHT22;9765;52.354;20.884;2022-08-21T12:47:47;28.90;99.90
19263;DHT22;9765;52.354;20.884;2022-08-21T12:50:23;29.30;99.90
19263;DHT22;9765;52.354;20.884;2022-08-21T12:52:55;29.00;99.90
19263;DHT22;9765;52.354;20.884;2022-08-21T12:55:28;29.10;99.90
19263;DHT22;9765;52.354;20.884;2022-08-21T12:57:55;29.30;99.90
19263;DHT22;9765;52.354;20.884;2022-08-21T13:00:24;29.00;99.90
19263;DHT22;9765;52.354;20.884;2022-08-21T13:02:53;29.20;99.90
19263;DHT22;9765;52.354;20.884;2022-08-21T13:05:29;29.20;99.90
19263;DHT22;9765;52.354;20.884;2022-08-21T13:07:58;29.20;99.90
19263;DHT22;9765;52.354;20.884;2022-08-21T13:10:27;28.90;99.90
19263;DHT22;9765;52.354;20.884;2022-08-21T13:12:59;29.00;99.90
19263;DHT22;9765;52.354;20.884;2022-08-21T13:15:30;29.00;99.90
19263;DHT22;9765;52.354;20.884;2022-08-21T13:17:57;29.20;99.90
19263;DHT22;9765;52.354;20.884;2022-08-21T13:20:31;29.20;99.90
19263;DHT22;9765;52.354;20.884;2022-08-21T13:22:59;29.10;99.90
19263;DHT22;9765;52.354;20.884;2022-08-21T13:25:29;28.90;99.90
19263;DHT22;9765;52.354;20.884;2022-08-21T13:28:00;29.30;99.90
19263;DHT22;9765;52.354;20.884;2022-08-21T13:30:28;29.00;99.90
19263;DHT22;9765;52.354;20.884;2022-08-21T13:32:58;29.00;99.90
19263;DHT22;9765;52.354;20.884;2022-08-21T13:35:30;29.00;99.90
19263;DHT22;9765;52.354;20.884;2022-08-21T13:37:58;28.90;99.90
19263;DHT22;9765;52.354;20.884;2022-08-21T13:40:29;28.80;99.90
19263;DHT22;9765;52.354;20.884;2022-08-21T13:42:56;28.80;99.90
19263;DHT22;9765;52.354;20.884;2022-08-21T13:45:27;28.90;99.90
19263;DHT22;9765;52.354;20.884;2022-08-21T13:47:54;29.00;99.90
19263;DHT22;9765;52.354;20.884;2022-08-21T13:50:23;29.10;99.90
19263;DHT22;9765;52.354;20.884;2022-08-21T13:52:59;29.00;99.90
19263;DHT22;9765;52.354;20.884;2022-08-21T13:55:36;29.00;99.90
19263;DHT22;9765;52.354;20.884;2022-08-21T13:58:04;29.00;99.90
19263;DHT22;9765;52.354;20.884;2022-08-21T14:00:32;28.90;99.90
19263;DHT22;9765;52.354;20.884;2022-08-21T14:03:04;28.80;99.90
19263;DHT22;9765;52.354;20.884;2022-08-21T14:05:33;28.70;99.90
19263;DHT22;9765;52.354;20.884;2022-08-21T14:08:06;28.60;99.90
19263;DHT22;9765;52.354;20.884;2022-08-21T14:10:37;28.50;99.90
19263;DHT22;9765;52.354;20.884;2022-08-21T14:13:07;28.40;99.90
19263;DHT22;9765;52.354;20.884;2022-08-21T14:15:35;28.40;99.90
19263;DHT22;9765;52.354;20.884;2022-08-21T14:18:13;28.30;99.90
19263;DHT22;9765;52.354;20.884;2022-08-21T14:20:40;28.40;99.90
19263;DHT22;9765;52.354;20.884;2022-08-21T14:23:09;28.40;99.90
19263;DHT22;9765;52.354;20.884;2022-08-21T14:25:40;28.40;99.90
19263;DHT22;9765;52.354;20.884;2022-08-21T14:28:15;28.50;99.90
19263;DHT22;9765;52.354;20.884;2022-08-21T14:30:45;28.40;99.90
19263;DHT22;9765;52.354;20.884;2022-08-21T14:33:13;28.30;99.90
19263;DHT22;9765;52.354;20.884;2022-08-21T14:35:43;28.20;99.90
19263;DHT22;9765;52.354;20.884;2022-08-21T14:38:17;28.20;99.90
19263;DHT22;9765;52.354;20.884;2022-08-21T14:40:47;28.20;99.90
19263;DHT22;9765;52.354;20.884;2022-08-21T14:43:13;28.20;99.90
19263;DHT22;9765;52.354;20.884;2022-08-21T14:45:40;28.20;99.90
19263;DHT22;9765;52.354;20.884;2022-08-21T14:48:09;28.10;99.90
19263;DHT22;9765;52.354;20.884;2022-08-21T14:50:36;28.10;99.90
19263;DHT22;9765;52.354;20.884;2022-08-21T14:53:03;28.10;99.90
19263;DHT22;9765;52.354;20.884;2022-08-21T14:55:31;28.10;99.90
19263;DHT22;9765;52.354;20.884;2022-08-21T14:58:20;28.00;99.90
19263;DHT22;9765;52.354;20.884;2022-08-21T15:00:48;28.00;99.90
19263;DHT22;9765;52.354;20.884;2022-08-21T15:03:15;28.00;99.90
19263;DHT22;9765;52.354;20.884;2022-08-21T15:05:42;28.00;99.90
19263;DHT22;9765;52.354;20.884;2022-08-21T15:08:08;28.00;99.90
19263;DHT22;9765;52.354;20.884;2022-08-21T15:10:36;27.90;99.90
19263;DHT22;9765;52.354;20.884;2022-08-21T15:13:03;27.70;99.90
19263;DHT22;9765;52.354;20.884;2022-08-21T15:15:34;27.60;99.90
19263;DHT22;9765;52.354;20.884;2022-08-21T15:18:02;27.50;99.90
19263;DHT22;9765;52.354;20.884;2022-08-21T15:20:28;27.50;99.90
19263;DHT22;9765;52.354;20.884;2022-08-21T15:22:55;27.50;99.90
19263;DHT22;9765;52.354;20.884;2022-08-21T15:25:22;27.60;99.90
19263;DHT22;9765;52.354;20.884;2022-08-21T15:27:50;27.50;99.90
19263;DHT22;9765;52.354;20.884;2022-08-21T15:30:17;27.40;99.90
19263;DHT22;9765;52.354;20.884;2022-08-21T15:32:43;27.50;99.90
19263;DHT22;9765;52.354;20.884;2022-08-21T15:35:10;27.50;99.90
19263;DHT22;9765;52.354;20.884;2022-08-21T15:37:37;27.40;99.90
19263;DHT22;9765;52.354;20.884;2022-08-21T15:40:04;27.40;99.90
19263;DHT22;9765;52.354;20.884;2022-08-21T15:42:34;27.30;99.90
19263;DHT22;9765;52.354;20.884;2022-08-21T15:45:03;27.30;99.90
19263;DHT22;9765;52.354;20.884;2022-08-21T15:47:31;27.30;99.90
19263;DHT22;9765;52.354;20.884;2022-08-21T15:49:58;27.30;99.90
19263;DHT22;9765;52.354;20.884;2022-08-21T15:52:25;27.20;99.90
19263;DHT22;9765;52.354;20.884;2022-08-21T15:54:52;27.20;99.90
19263;DHT22;9765;52.354;20.884;2022-08-21T15:57:22;27.20;99.90
19263;DHT22;9765;52.354;20.884;2022-08-21T15:59:52;27.20;99.90
19263;DHT22;9765;52.354;20.884;2022-08-21T16:02:23;27.10;99.90
19263;DHT22;9765;52.354;20.884;2022-08-21T16:04:50;27.00;99.90
19263;DHT22;9765;52.354;20.884;2022-08-21T16:07:17;27.00;99.90
19263;DHT22;9765;52.354;20.884;2022-08-21T16:09:44;26.90;99.90
19263;DHT22;9765;52.354;20.884;2022-08-21T16:12:15;26.80;99.90
19263;DHT22;9765;52.354;20.884;2022-08-21T16:14:43;26.70;99.90
19263;DHT22;9765;52.354;20.884;2022-08-21T16:17:09;26.70;99.90
19263;DHT22;9765;52.354;20.884;2022-08-21T16:19:38;26.60;99.90
19263;DHT22;9765;52.354;20.884;2022-08-21T16:22:05;26.60;99.90
19263;DHT22;9765;52.354;20.884;2022-08-21T16:24:31;26.60;99.90
19263;DHT22;9765;52.354;20.884;2022-08-21T16:26:58;26.40;99.90
19263;DHT22;9765;52.354;20.884;2022-08-21T16:29:26;26.50;99.90
19263;DHT22;9765;52.354;20.884;2022-08-21T16:31:56;26.50;99.90
19263;DHT22;9765;52.354;20.884;2022-08-21T16:34:23;26.50;99.90
19263;DHT22;9765;52.354;20.884;2022-08-21T16:36:51;26.30;99.90
19263;DHT22;9765;52.354;20.884;2022-08-21T16:39:19;26.30;99.90
19263;DHT22;9765;52.354;20.884;2022-08-21T16:41:47;26.10;99.90
19263;DHT22;9765;52.354;20.884;2022-08-21T16:44:15;26.10;99.90
19263;DHT22;9765;52.354;20.884;2022-08-21T16:46:42;26.00;99.90
19263;DHT22;9765;52.354;20.884;2022-08-21T16:49:09;25.80;99.90
19263;DHT22;9765;52.354;20.884;2022-08-21T16:51:35;25.90;99.90
19263;DHT22;9765;52.354;20.884;2022-08-21T16:54:04;25.90;99.90
19263;DHT22;9765;52.354;20.884;2022-08-21T16:56:31;25.80;99.90
19263;DHT22;9765;52.354;20.884;2022-08-21T16:58:58;25.70;99.90
19263;DHT22;9765;52.354;20.884;2022-08-21T17:01:28;25.70;99.90
19263;DHT22;9765;52.354;20.884;2022-08-21T17:03:56;25.70;99.90
19263;DHT22;9765;52.354;20.884;2022-08-21T17:06:23;25.60;99.90
19263;DHT22;9765;52.354;20.884;2022-08-21T17:08:51;25.60;99.90
19263;DHT22;9765;52.354;20.884;2022-08-21T17:11:23;25.60;99.90
19263;DHT22;9765;52.354;20.884;2022-08-21T17:13:51;25.40;99.90
19263;DHT22;9765;52.354;20.884;2022-08-21T17:16:18;25.40;99.90
19263;DHT22;9765;52.354;20.884;2022-08-21T17:18:44;25.40;99.90
19263;DHT22;9765;52.354;20.884;2022-08-21T17:21:12;25.40;99.90
19263;DHT22;9765;52.354;20.884;2022-08-21T17:23:38;25.50;99.90
19263;DHT22;9765;52.354;20.884;2022-08-21T17:26:05;26.00;99.90
